createdAt,value
2022-12-25T00:01:24.306Z,97954.00
2022-12-25T00:03:52.877Z,97951.00
2022-12-25T00:06:20.404Z,97949.00
2022-12-25T00:08:47.545Z,97946.00
2022-12-25T00:11:18.368Z,97945.00
2022-12-25T00:13:47.307Z,97958.00
2022-12-25T00:16:32.469Z,97955.00
2022-12-25T00:19:00.929Z,97948.00
2022-12-25T00:21:28.730Z,97945.00
2022-12-25T00:23:58.235Z,97947.00
2022-12-25T00:26:27.726Z,97943.00
2022-12-25T00:28:56.834Z,97940.00
2022-12-25T00:31:25.734Z,97928.00
2022-12-25T00:33:53.198Z,97926.00
2022-12-25T00:36:23.132Z,97936.00
2022-12-25T00:38:50.218Z,97930.00
2022-12-25T00:41:40.693Z,97942.00
2022-12-25T00:44:10.567Z,97948.00
2022-12-25T00:46:37.682Z,97947.00
2022-12-25T00:49:05.020Z,97953.00
2022-12-25T00:51:33.046Z,97957.00
2022-12-25T00:54:00.219Z,97962.00
2022-12-25T00:56:27.497Z,97968.00
2022-12-25T00:58:55.017Z,97965.00
2022-12-25T01:01:22.299Z,97969.00
2022-12-25T01:03:49.511Z,97977.00
2022-12-25T01:06:16.672Z,97984.00
2022-12-25T01:09:02.544Z,97983.00
2022-12-25T01:11:29.982Z,97978.00
2022-12-25T01:13:57.487Z,97977.00
2022-12-25T01:16:24.854Z,97985.00
2022-12-25T01:18:52.316Z,97986.00
2022-12-25T01:21:21.369Z,97981.00
2022-12-25T01:23:50.992Z,97970.00
2022-12-25T01:26:20.838Z,97979.00
2022-12-25T01:28:49.393Z,97978.00
2022-12-25T01:31:20.277Z,97980.00
2022-12-25T01:33:48.097Z,97972.00
2022-12-25T01:36:22.590Z,97971.00
2022-12-25T01:38:51.192Z,97964.00
2022-12-25T01:41:21.960Z,97959.00
2022-12-25T01:46:24.646Z,97957.00
2022-12-25T01:48:53.315Z,97956.00
2022-12-25T01:51:42.660Z,97953.00
2022-12-25T01:54:20.838Z,97950.00
2022-12-25T01:56:50.038Z,97956.00
2022-12-25T01:59:20.181Z,97956.00
2022-12-25T02:01:47.672Z,97976.00
2022-12-25T02:04:40.291Z,97967.00
2022-12-25T02:07:22.785Z,97967.00
2022-12-25T02:09:51.693Z,97957.00
2022-12-25T02:12:31.633Z,97955.00
2022-12-25T02:15:16.108Z,97946.00
2022-12-25T02:18:01.438Z,97933.00
2022-12-25T02:20:45.061Z,97937.00
2022-12-25T02:23:53.111Z,97935.00
2022-12-25T02:27:10.993Z,97945.00
2022-12-25T02:29:59.937Z,97961.00
2022-12-25T02:32:39.762Z,97964.00
2022-12-25T02:35:25.437Z,97962.00
2022-12-25T02:38:07.426Z,97965.00
2022-12-25T02:40:42.935Z,97950.00
2022-12-25T02:43:43.924Z,97955.00
2022-12-25T02:46:34.434Z,97957.00
2022-12-25T02:49:32.415Z,97959.00
2022-12-25T02:52:40.911Z,97956.00
2022-12-25T02:55:37.906Z,97955.00
2022-12-25T02:58:31.224Z,97947.00
2022-12-25T03:01:25.123Z,97949.00
2022-12-25T03:04:15.296Z,97948.00
2022-12-25T03:07:02.974Z,97950.00
2022-12-25T03:10:06.619Z,97954.00
2022-12-25T03:13:14.891Z,97949.00
2022-12-25T03:16:00.991Z,97949.00
2022-12-25T03:18:31.650Z,97943.00
2022-12-25T03:21:18.497Z,97953.00
2022-12-25T03:24:23.588Z,97944.00
2022-12-25T03:26:57.012Z,97935.00
2022-12-25T03:29:49.657Z,97942.00
2022-12-25T03:32:38.303Z,97929.00
2022-12-25T03:35:22.920Z,97909.00
2022-12-25T03:38:42.506Z,97917.00
2022-12-25T03:41:40.227Z,97926.00
2022-12-25T03:44:35.597Z,97921.00
2022-12-25T03:47:31.775Z,97929.00
2022-12-25T03:50:39.043Z,97933.00
2022-12-25T03:53:32.646Z,97930.00
2022-12-25T03:56:18.625Z,97923.00
2022-12-25T03:59:19.324Z,97937.00
2022-12-25T04:02:09.800Z,97929.00
2022-12-25T04:04:56.316Z,97916.00
2022-12-25T04:07:42.208Z,97906.00
2022-12-25T04:10:28.688Z,97908.00
2022-12-25T04:13:14.542Z,97919.00
2022-12-25T04:16:00.648Z,97917.00
2022-12-25T04:18:46.358Z,97939.00
2022-12-25T04:21:32.323Z,97933.00
2022-12-25T04:24:18.292Z,97928.00
2022-12-25T04:27:03.977Z,97912.00
2022-12-25T04:29:49.318Z,97916.00
2022-12-25T04:32:35.153Z,97917.00
2022-12-25T04:35:21.038Z,97914.00
2022-12-25T04:37:48.110Z,97907.00
2022-12-25T04:40:15.375Z,97909.00
2022-12-25T04:42:42.423Z,97907.00
2022-12-25T04:45:10.588Z,97909.00
2022-12-25T04:47:37.699Z,97920.00
2022-12-25T04:50:05.489Z,97920.00
2022-12-25T04:52:40.308Z,97916.00
2022-12-25T04:55:09.821Z,97904.00
2022-12-25T04:57:37.555Z,97911.00
2022-12-25T05:00:06.958Z,97913.00
2022-12-25T05:02:34.280Z,97921.00
2022-12-25T05:05:01.597Z,97923.00
2022-12-25T05:07:28.851Z,97918.00
2022-12-25T05:09:55.950Z,97916.00
2022-12-25T05:12:23.021Z,97911.00
2022-12-25T05:14:50.450Z,97912.00
2022-12-25T05:17:17.512Z,97908.00
2022-12-25T05:19:44.514Z,97899.00
2022-12-25T05:22:11.629Z,97900.00
2022-12-25T05:24:38.760Z,97898.00
2022-12-25T05:27:05.811Z,97890.00
2022-12-25T05:29:32.980Z,97894.00
2022-12-25T05:32:00.008Z,97890.00
2022-12-25T05:34:27.021Z,97882.00
2022-12-25T05:36:54.035Z,97878.00
2022-12-25T05:39:21.121Z,97884.00
2022-12-25T05:41:48.265Z,97886.00
2022-12-25T05:44:15.641Z,97892.00
2022-12-25T05:46:42.749Z,97896.00
2022-12-25T05:49:09.827Z,97876.00
2022-12-25T05:51:36.961Z,97886.00
2022-12-25T05:54:04.102Z,97878.00
2022-12-25T05:56:31.206Z,97886.00
2022-12-25T05:58:58.307Z,97890.00
2022-12-25T06:01:28.417Z,97896.00
2022-12-25T06:03:56.937Z,97899.00
2022-12-25T06:06:24.205Z,97892.00
2022-12-25T06:08:55.144Z,97886.00
2022-12-25T06:11:22.930Z,97881.00
2022-12-25T06:13:51.940Z,97880.00
2022-12-25T06:16:20.103Z,97880.00
2022-12-25T06:18:50.359Z,97904.00
2022-12-25T06:21:17.469Z,97899.00
2022-12-25T06:23:45.320Z,97891.00
2022-12-25T06:26:17.002Z,97886.00
2022-12-25T06:28:44.998Z,97873.00
2022-12-25T06:31:16.399Z,97872.00
2022-12-25T06:33:44.066Z,97886.00
2022-12-25T06:36:24.843Z,97885.00
2022-12-25T06:38:52.895Z,97893.00
2022-12-25T06:41:25.276Z,97886.00
2022-12-25T06:43:55.624Z,97892.00
2022-12-25T06:46:25.493Z,97884.00
2022-12-25T06:48:53.025Z,97885.00
2022-12-25T06:51:29.716Z,97889.00
2022-12-25T06:53:57.806Z,97886.00
2022-12-25T06:56:28.478Z,97891.00
2022-12-25T06:59:02.019Z,97907.00
2022-12-25T07:01:35.022Z,97903.00
2022-12-25T07:04:06.836Z,97903.00
2022-12-25T07:06:34.337Z,97906.00
2022-12-25T07:09:01.404Z,97912.00
2022-12-25T07:11:28.612Z,97917.00
2022-12-25T07:13:55.703Z,97923.00
2022-12-25T07:16:23.102Z,97925.00
2022-12-25T07:18:50.265Z,97919.00
2022-12-25T07:21:20.453Z,97907.00
2022-12-25T07:23:49.890Z,97921.00
2022-12-25T07:26:20.090Z,97927.00
2022-12-25T07:28:47.171Z,97919.00
2022-12-25T07:31:16.666Z,97917.00
2022-12-25T07:33:45.032Z,97925.00
2022-12-25T07:36:13.572Z,97930.00
2022-12-25T07:38:42.504Z,97921.00
2022-12-25T07:41:13.442Z,97924.00
2022-12-25T07:43:41.386Z,97929.00
2022-12-25T07:46:09.414Z,97928.00
2022-12-25T07:48:37.197Z,97926.00
2022-12-25T07:51:11.583Z,97937.00
2022-12-25T07:53:39.573Z,97928.00
2022-12-25T07:56:14.846Z,97926.00
2022-12-25T07:58:44.236Z,97931.00
2022-12-25T08:01:26.744Z,97929.00
2022-12-25T08:04:00.377Z,97932.00
2022-12-25T08:06:32.827Z,97928.00
2022-12-25T08:09:12.856Z,97923.00
2022-12-25T08:11:45.433Z,97921.00
2022-12-25T08:14:12.733Z,97928.00
2022-12-25T08:16:41.583Z,97918.00
2022-12-25T08:19:09.308Z,97914.00
2022-12-25T08:21:36.760Z,97919.00
2022-12-25T08:24:04.135Z,97921.00
2022-12-25T08:26:31.171Z,97923.00
2022-12-25T08:28:58.230Z,97914.00
2022-12-25T08:31:28.711Z,97921.00
2022-12-25T08:33:58.040Z,97920.00
2022-12-25T08:36:25.522Z,97924.00
2022-12-25T08:38:57.004Z,97923.00
2022-12-25T08:41:27.971Z,97928.00
2022-12-25T08:43:55.226Z,97927.00
2022-12-25T08:46:22.342Z,97925.00
2022-12-25T08:48:50.629Z,97924.00
2022-12-25T08:51:20.862Z,97910.00
2022-12-25T08:53:49.772Z,97914.00
2022-12-25T08:56:18.300Z,97918.00
2022-12-25T08:58:45.607Z,97914.00
2022-12-25T09:01:13.832Z,97910.00
2022-12-25T09:03:41.566Z,97910.00
2022-12-25T09:06:17.795Z,97913.00
2022-12-25T09:08:48.991Z,97910.00
2022-12-25T09:11:19.103Z,97912.00
2022-12-25T09:13:46.707Z,97909.00
2022-12-25T09:16:19.069Z,97910.00
2022-12-25T09:18:46.380Z,97916.00
2022-12-25T09:21:15.874Z,97916.00
2022-12-25T09:23:43.219Z,97918.00
2022-12-25T09:26:14.042Z,97921.00
2022-12-25T09:28:48.424Z,97920.00
2022-12-25T09:31:18.514Z,97912.00
2022-12-25T09:33:45.623Z,97908.00
2022-12-25T09:36:12.758Z,97891.00
2022-12-25T09:38:39.942Z,97883.00
2022-12-25T09:41:30.797Z,97867.00
2022-12-25T09:44:19.854Z,97879.00
2022-12-25T09:47:12.252Z,97873.00
2022-12-25T09:49:44.934Z,97879.00
2022-12-25T09:52:22.377Z,97871.00
2022-12-25T09:55:20.542Z,97866.00
2022-12-25T09:57:55.998Z,97860.00
2022-12-25T10:00:26.137Z,97863.00
2022-12-25T10:03:23.389Z,97874.00
2022-12-25T10:06:37.353Z,97870.00
2022-12-25T10:09:20.567Z,97872.00
2022-12-25T10:12:15.280Z,97872.00
2022-12-25T10:15:21.266Z,97876.00
2022-12-25T10:18:37.760Z,97875.00
2022-12-25T10:21:13.270Z,97857.00
2022-12-25T10:24:07.791Z,97858.00
2022-12-25T10:26:35.622Z,97859.00
2022-12-25T10:29:16.952Z,97857.00
2022-12-25T10:31:47.442Z,97863.00
2022-12-25T10:34:15.355Z,97861.00
2022-12-25T10:36:45.306Z,97865.00
2022-12-25T10:39:21.292Z,97863.00
2022-12-25T10:42:17.121Z,97865.00
2022-12-25T10:44:57.741Z,97853.00
2022-12-25T10:47:29.272Z,97850.00
2022-12-25T10:49:57.970Z,97849.00
2022-12-25T10:52:28.810Z,97847.00
2022-12-25T10:54:56.744Z,97844.00
2022-12-25T10:57:26.161Z,97854.00
2022-12-25T10:59:56.593Z,97838.00
2022-12-25T11:02:42.066Z,97844.00
2022-12-25T11:05:15.491Z,97834.00
2022-12-25T11:07:51.317Z,97839.00
2022-12-25T11:10:37.767Z,97820.00
2022-12-25T11:13:18.583Z,97819.00
2022-12-25T11:15:49.503Z,97810.00
2022-12-25T11:18:29.174Z,97804.00
2022-12-25T11:21:02.911Z,97811.00
2022-12-25T11:23:32.873Z,97805.00
2022-12-25T11:26:07.988Z,97790.00
2022-12-25T11:28:38.320Z,97785.00
2022-12-25T11:31:19.839Z,97787.00
2022-12-25T11:33:59.830Z,97772.00
2022-12-25T11:36:46.208Z,97783.00
2022-12-25T11:39:32.084Z,97772.00
2022-12-25T11:42:08.370Z,97761.00
2022-12-25T11:45:09.308Z,97754.00
2022-12-25T11:47:57.575Z,97757.00
2022-12-25T11:50:43.012Z,97749.00
2022-12-25T11:53:47.425Z,97741.00
2022-12-25T11:56:26.733Z,97748.00
2022-12-25T11:59:30.602Z,97750.00
2022-12-25T12:02:33.060Z,97734.00
2022-12-25T12:05:15.970Z,97739.00
2022-12-25T12:08:06.675Z,97734.00
2022-12-25T12:11:16.410Z,97725.00
2022-12-25T12:14:21.414Z,97717.00
2022-12-25T12:16:50.831Z,97714.00
2022-12-25T12:19:34.822Z,97716.00
2022-12-25T12:22:05.440Z,97710.00
2022-12-25T12:24:44.041Z,97708.00
2022-12-25T12:27:34.621Z,97713.00
2022-12-25T12:30:23.343Z,97709.00
2022-12-25T12:32:55.529Z,97716.00
2022-12-25T12:35:42.827Z,97710.00
2022-12-25T12:38:18.484Z,97717.00
2022-12-25T12:41:03.215Z,97712.00
2022-12-25T12:43:41.810Z,97709.00
2022-12-25T12:46:27.938Z,97709.00
2022-12-25T12:49:27.026Z,97700.00
2022-12-25T12:52:10.513Z,97694.00
2022-12-25T12:55:01.619Z,97698.00
2022-12-25T12:57:34.505Z,97695.00
2022-12-25T13:00:08.409Z,97694.00
2022-12-25T13:03:16.745Z,97690.00
2022-12-25T13:05:55.833Z,97679.00
2022-12-25T13:08:49.919Z,97670.00
2022-12-25T13:11:33.929Z,97676.00
2022-12-25T13:14:03.403Z,97673.00
2022-12-25T13:16:35.013Z,97665.00
2022-12-25T13:19:22.376Z,97666.00
2022-12-25T13:22:06.260Z,97677.00
2022-12-25T13:24:36.870Z,97672.00
2022-12-25T13:27:24.649Z,97673.00
2022-12-25T13:29:51.811Z,97659.00
2022-12-25T13:32:33.697Z,97658.00
2022-12-25T13:35:01.333Z,97655.00
2022-12-25T13:37:31.510Z,97657.00
2022-12-25T13:40:02.179Z,97665.00
2022-12-25T13:42:36.469Z,97668.00
2022-12-25T13:45:28.431Z,97663.00
2022-12-25T13:47:56.213Z,97668.00
2022-12-25T13:50:33.597Z,97659.00
2022-12-25T13:53:18.190Z,97656.00
2022-12-25T13:55:52.634Z,97665.00
2022-12-25T13:58:27.673Z,97671.00
2022-12-25T14:00:58.368Z,97668.00
2022-12-25T14:03:47.291Z,97677.00
2022-12-25T14:06:20.966Z,97674.00
2022-12-25T14:08:48.979Z,97660.00
2022-12-25T14:11:20.796Z,97664.00
2022-12-25T14:13:51.973Z,97664.00
2022-12-25T14:16:21.110Z,97647.00
2022-12-25T14:19:00.287Z,97656.00
2022-12-25T14:21:41.956Z,97664.00
2022-12-25T14:24:15.429Z,97648.00
2022-12-25T14:26:43.228Z,97645.00
2022-12-25T14:29:17.621Z,97638.00
2022-12-25T14:31:47.516Z,97642.00
2022-12-25T14:34:22.538Z,97647.00
2022-12-25T14:36:51.463Z,97639.00
2022-12-25T14:39:38.043Z,97643.00
2022-12-25T14:42:23.073Z,97640.00
2022-12-25T14:45:03.237Z,97635.00
2022-12-25T14:47:33.483Z,97651.00
2022-12-25T14:50:00.687Z,97658.00
2022-12-25T14:52:43.667Z,97633.00
2022-12-25T14:55:21.469Z,97651.00
2022-12-25T14:58:05.626Z,97657.00
2022-12-25T15:00:35.781Z,97638.00
2022-12-25T15:03:17.812Z,97642.00
2022-12-25T15:05:45.029Z,97648.00
2022-12-25T15:08:11.989Z,97656.00
2022-12-25T15:13:29.476Z,97635.00
2022-12-25T15:16:22.629Z,97654.00
2022-12-25T15:18:50.474Z,97640.00
2022-12-25T15:21:30.228Z,97626.00
2022-12-25T15:23:59.565Z,97637.00
2022-12-25T15:26:30.732Z,97644.00
2022-12-25T15:28:58.780Z,97643.00
2022-12-25T15:31:30.179Z,97638.00
2022-12-25T15:34:00.968Z,97647.00
2022-12-25T15:36:29.085Z,97660.00
2022-12-25T15:38:56.678Z,97654.00
2022-12-25T15:41:55.804Z,97648.00
2022-12-25T15:44:24.203Z,97652.00
2022-12-25T15:46:51.619Z,97657.00
2022-12-25T15:49:18.751Z,97656.00
2022-12-25T15:51:46.622Z,97652.00
2022-12-25T15:54:13.727Z,97663.00
2022-12-25T15:56:51.570Z,97666.00
2022-12-25T15:59:21.351Z,97650.00
2022-12-25T16:01:55.459Z,97635.00
2022-12-25T16:04:24.987Z,97637.00
2022-12-25T16:06:53.161Z,97631.00
2022-12-25T16:09:21.015Z,97623.00
2022-12-25T16:11:50.370Z,97617.00
2022-12-25T16:14:18.950Z,97616.00
2022-12-25T16:16:46.158Z,97622.00
2022-12-25T16:19:13.280Z,97622.00
2022-12-25T16:21:44.497Z,97614.00
2022-12-25T16:24:12.035Z,97619.00
2022-12-25T16:26:39.631Z,97629.00
2022-12-25T16:29:08.021Z,97621.00
2022-12-25T16:31:36.967Z,97617.00
2022-12-25T16:34:05.757Z,97616.00
2022-12-25T16:36:33.879Z,97624.00
2022-12-25T16:39:00.959Z,97618.00
2022-12-25T16:41:28.081Z,97632.00
2022-12-25T16:43:55.086Z,97645.00
2022-12-25T16:46:23.501Z,97647.00
2022-12-25T16:48:50.667Z,97637.00
2022-12-25T16:51:21.063Z,97641.00
2022-12-25T16:53:48.725Z,97643.00
2022-12-25T16:56:20.652Z,97640.00
2022-12-25T16:58:48.417Z,97637.00
2022-12-25T17:01:19.498Z,97636.00
2022-12-25T17:03:47.529Z,97636.00
2022-12-25T17:06:24.349Z,97642.00
2022-12-25T17:08:58.798Z,97639.00
2022-12-25T17:11:30.313Z,97637.00
2022-12-25T17:14:03.591Z,97635.00
2022-12-25T17:16:36.237Z,97642.00
2022-12-25T17:19:12.148Z,97635.00
2022-12-25T17:21:39.407Z,97630.00
2022-12-25T17:24:07.163Z,97633.00
2022-12-25T17:26:34.155Z,97633.00
2022-12-25T17:29:01.539Z,97631.00
2022-12-25T17:31:29.471Z,97624.00
2022-12-25T17:33:56.701Z,97629.00
2022-12-25T17:36:24.317Z,97624.00
2022-12-25T17:38:51.385Z,97609.00
2022-12-25T17:41:19.893Z,97622.00
2022-12-25T17:43:48.352Z,97635.00
2022-12-25T17:46:20.153Z,97632.00
2022-12-25T17:48:47.538Z,97629.00
2022-12-25T17:51:17.512Z,97641.00
2022-12-25T17:53:48.237Z,97639.00
2022-12-25T17:56:16.456Z,97633.00
2022-12-25T17:58:44.067Z,97649.00
2022-12-25T18:01:15.632Z,97645.00
2022-12-25T18:03:46.323Z,97639.00
2022-12-25T18:06:17.403Z,97647.00
2022-12-25T18:08:46.532Z,97641.00
2022-12-25T18:11:18.288Z,97630.00
2022-12-25T18:13:48.515Z,97623.00
2022-12-25T18:16:17.498Z,97628.00
2022-12-25T18:18:51.387Z,97628.00
2022-12-25T18:21:21.098Z,97623.00
2022-12-25T18:23:48.365Z,97621.00
2022-12-25T18:26:15.603Z,97639.00
2022-12-25T18:28:43.950Z,97636.00
2022-12-25T18:31:16.938Z,97636.00
2022-12-25T18:33:45.036Z,97633.00
2022-12-25T18:36:20.353Z,97639.00
2022-12-25T18:38:52.609Z,97631.00
2022-12-25T18:41:21.784Z,97634.00
2022-12-25T18:43:52.683Z,97635.00
2022-12-25T18:46:24.251Z,97633.00
2022-12-25T18:48:52.604Z,97636.00
2022-12-25T18:51:19.927Z,97629.00
2022-12-25T18:53:47.112Z,97647.00
2022-12-25T18:56:17.552Z,97649.00
2022-12-25T18:58:46.557Z,97635.00
2022-12-25T19:01:20.939Z,97638.00
2022-12-25T19:03:51.612Z,97647.00
2022-12-25T19:06:21.792Z,97641.00
2022-12-25T19:08:49.350Z,97643.00
2022-12-25T19:11:18.118Z,97629.00
2022-12-25T19:13:45.857Z,97634.00
2022-12-25T19:16:13.513Z,97662.00
2022-12-25T19:18:40.875Z,97647.00
2022-12-25T19:21:09.476Z,97643.00
2022-12-25T19:23:38.055Z,97634.00
2022-12-25T19:26:07.433Z,97641.00
2022-12-25T19:28:35.274Z,97646.00
2022-12-25T19:31:03.944Z,97651.00
2022-12-25T19:33:32.276Z,97632.00
2022-12-25T19:36:08.804Z,97668.00
2022-12-25T19:38:35.884Z,97665.00
2022-12-25T19:41:08.478Z,97645.00
2022-12-25T19:43:39.023Z,97665.00
2022-12-25T19:46:08.544Z,97638.00
2022-12-25T19:48:35.851Z,97649.00
2022-12-25T19:51:03.019Z,97662.00
2022-12-25T19:53:31.209Z,97661.00
2022-12-25T19:56:02.471Z,97652.00
2022-12-25T19:58:30.255Z,97656.00
2022-12-25T20:01:05.220Z,97635.00
2022-12-25T20:03:37.432Z,97647.00
2022-12-25T20:06:09.132Z,97655.00
2022-12-25T20:08:36.189Z,97651.00
2022-12-25T20:11:03.847Z,97649.00
2022-12-25T20:13:30.819Z,97652.00
2022-12-25T20:16:01.747Z,97656.00
2022-12-25T20:18:29.369Z,97666.00
2022-12-25T20:21:05.408Z,97668.00
2022-12-25T20:23:33.197Z,97669.00
2022-12-25T20:26:01.960Z,97668.00
2022-12-25T20:28:29.375Z,97668.00
2022-12-25T20:30:57.234Z,97662.00
2022-12-25T20:33:24.540Z,97665.00
2022-12-25T20:35:51.999Z,97657.00
2022-12-25T20:38:19.129Z,97663.00
2022-12-25T20:41:24.410Z,97661.00
2022-12-25T20:43:34.154Z,97671.00
2022-12-25T20:46:01.519Z,97671.00
2022-12-25T20:48:28.964Z,97682.00
2022-12-25T20:51:12.454Z,97673.00
2022-12-25T20:53:40.319Z,97677.00
2022-12-25T20:56:11.284Z,97668.00
2022-12-25T20:58:38.617Z,97682.00
2022-12-25T21:01:14.344Z,97665.00
2022-12-25T21:03:41.961Z,97669.00
2022-12-25T21:06:10.128Z,97668.00
2022-12-25T21:08:38.538Z,97661.00
2022-12-25T21:11:07.513Z,97671.00
2022-12-25T21:13:41.020Z,97674.00
2022-12-25T21:16:18.814Z,97666.00
2022-12-25T21:18:48.047Z,97673.00
2022-12-25T21:21:16.278Z,97676.00
2022-12-25T21:23:43.404Z,97668.00
2022-12-25T21:26:21.651Z,97672.00
2022-12-25T21:28:57.446Z,97665.00
2022-12-25T21:31:25.649Z,97674.00
2022-12-25T21:33:55.309Z,97669.00
2022-12-25T21:36:32.797Z,97674.00
2022-12-25T21:39:08.490Z,97675.00
2022-12-25T21:41:38.473Z,97680.00
2022-12-25T21:44:06.707Z,97677.00
2022-12-25T21:46:34.143Z,97675.00
2022-12-25T21:49:02.036Z,97686.00
2022-12-25T21:51:52.944Z,97692.00
2022-12-25T21:54:23.074Z,97687.00
2022-12-25T21:56:50.813Z,97697.00
2022-12-25T21:59:21.541Z,97710.00
2022-12-25T22:01:50.415Z,97703.00
2022-12-25T22:04:20.561Z,97708.00
2022-12-25T22:07:06.773Z,97710.00
2022-12-25T22:09:34.589Z,97706.00
2022-12-25T22:12:21.391Z,97711.00
2022-12-25T22:14:56.624Z,97717.00
2022-12-25T22:17:53.816Z,97708.00
2022-12-25T22:20:34.768Z,97715.00
2022-12-25T22:23:02.608Z,97719.00
2022-12-25T22:25:29.763Z,97719.00
2022-12-25T22:27:57.631Z,97722.00
2022-12-25T22:30:28.305Z,97722.00
2022-12-25T22:32:56.345Z,97724.00
2022-12-25T22:35:24.174Z,97726.00
2022-12-25T22:37:51.488Z,97717.00
2022-12-25T22:40:20.090Z,97729.00
2022-12-25T22:42:47.876Z,97740.00
2022-12-25T22:45:15.267Z,97738.00
2022-12-25T22:47:42.417Z,97736.00
2022-12-25T22:50:11.409Z,97736.00
2022-12-25T22:52:39.042Z,97732.00
2022-12-25T22:55:08.560Z,97721.00
2022-12-25T22:57:36.503Z,97739.00
2022-12-25T23:00:06.607Z,97745.00
2022-12-25T23:02:35.313Z,97735.00
2022-12-25T23:05:03.492Z,97732.00
2022-12-25T23:07:30.656Z,97736.00
2022-12-25T23:09:57.720Z,97717.00
2022-12-25T23:12:43.570Z,97736.00
2022-12-25T23:15:10.922Z,97746.00
2022-12-25T23:17:56.910Z,97730.00
2022-12-25T23:20:42.802Z,97727.00
2022-12-25T23:23:34.662Z,97733.00
2022-12-25T23:26:09.649Z,97735.00
2022-12-25T23:29:00.859Z,97729.00
2022-12-25T23:31:39.933Z,97732.00
2022-12-25T23:34:08.717Z,97726.00
2022-12-25T23:36:36.049Z,97733.00
2022-12-25T23:39:09.554Z,97733.00
2022-12-25T23:41:41.455Z,97743.00
2022-12-25T23:44:11.138Z,97745.00
2022-12-25T23:46:39.116Z,97745.00
2022-12-25T23:49:07.200Z,97724.00
2022-12-25T23:51:43.868Z,97738.00
2022-12-25T23:54:14.544Z,97733.00
2022-12-25T23:56:42.863Z,97730.00
2022-12-25T23:59:10.901Z,97738.00
